createdAt,value
2016-12-31T00:00:16.037Z,-0.03
2016-12-31T00:01:16.381Z,-0.04
2016-12-31T00:02:16.338Z,-0.03
2016-12-31T00:03:16.294Z,-0.05
2016-12-31T00:04:16.253Z,-0.05
2016-12-31T00:05:16.209Z,-0.07
2016-12-31T00:06:16.171Z,-0.08
2016-12-31T00:07:15.355Z,-0.05
2016-12-31T00:08:16.083Z,-0.03
2016-12-31T00:09:15.660Z,-0.08
2016-12-31T00:10:15.998Z,-0.03
2016-12-31T00:11:15.569Z,-0.07
2016-12-31T00:12:15.918Z,-0.08
2016-12-31T00:13:15.869Z,-0.08
2016-12-31T00:14:15.831Z,-0.03
2016-12-31T00:15:15.405Z,0
2016-12-31T00:16:15.743Z,-0.07
2016-12-31T00:17:15.325Z,-0.14
2016-12-31T00:18:15.661Z,-0.07
2016-12-31T00:19:15.614Z,-0.15
2016-12-31T00:20:15.576Z,-0.07
2016-12-31T00:21:15.532Z,-0.15
2016-12-31T00:22:15.116Z,-0.15
2016-12-31T00:23:15.448Z,-0.16
2016-12-31T00:24:14.636Z,-0.15
2016-12-31T00:25:14.975Z,-0.14
2016-12-31T00:26:15.322Z,-0.16
2016-12-31T00:27:15.274Z,-0.21
2016-12-31T00:28:14.845Z,-0.18
2016-12-31T00:29:14.421Z,-0.15
2016-12-31T00:30:14.759Z,-0.19
2016-12-31T00:31:14.719Z,-0.14
2016-12-31T00:32:15.062Z,-0.15
2016-12-31T00:33:14.635Z,-0.11
2016-12-31T00:34:14.975Z,-0.16
2016-12-31T00:35:14.931Z,-0.18
2016-12-31T00:36:14.892Z,-0.16
2016-12-31T00:37:14.851Z,-0.16
2016-12-31T00:38:14.805Z,-0.15
2016-12-31T00:39:14.762Z,-0.18
2016-12-31T00:40:13.948Z,-0.14
2016-12-31T00:41:13.939Z,-0.16
2016-12-31T00:42:14.250Z,-0.14
2016-12-31T00:43:14.591Z,-0.16
2016-12-31T00:44:14.568Z,-0.11
2016-12-31T00:45:14.146Z,-0.22
2016-12-31T00:46:14.466Z,-0.16
2016-12-31T00:47:14.423Z,-0.18
2016-12-31T00:48:14.380Z,-0.16
2016-12-31T00:49:14.339Z,-0.15
2016-12-31T00:50:14.292Z,-0.21
2016-12-31T00:51:13.867Z,-0.22
2016-12-31T00:52:14.211Z,-0.08
2016-12-31T00:53:14.163Z,-0.25
2016-12-31T00:54:14.131Z,-0.26
2016-12-31T00:55:14.079Z,-0.21
2016-12-31T00:56:14.041Z,-0.21
2016-12-31T00:57:13.999Z,-0.19
2016-12-31T00:58:13.955Z,-0.33
2016-12-31T00:59:13.527Z,-0.25
2016-12-31T01:00:13.870Z,-0.25
2016-12-31T01:01:13.824Z,-0.16
2016-12-31T01:02:13.795Z,-0.29
2016-12-31T01:03:13.741Z,-0.28
2016-12-31T01:04:13.708Z,-0.29
2016-12-31T01:05:13.653Z,-0.19
2016-12-31T01:06:13.617Z,-0.26
2016-12-31T01:07:13.577Z,-0.22
2016-12-31T01:08:13.529Z,-0.25
2016-12-31T01:09:13.488Z,-0.21
2016-12-31T01:10:13.057Z,-0.26
2016-12-31T01:11:13.408Z,-0.26
2016-12-31T01:12:13.356Z,-0.25
2016-12-31T01:13:12.939Z,-0.19
2016-12-31T01:14:13.290Z,-0.29
2016-12-31T01:15:12.849Z,-0.21
2016-12-31T01:16:13.189Z,-0.22
2016-12-31T01:17:13.147Z,-0.28
2016-12-31T01:18:13.104Z,-0.34
2016-12-31T01:19:12.692Z,-0.21
2016-12-31T01:20:12.634Z,-0.25
2016-12-31T01:21:12.602Z,-0.29
2016-12-31T01:22:12.933Z,-0.25
2016-12-31T01:23:12.504Z,-0.36
2016-12-31T01:24:12.848Z,-0.26
2016-12-31T01:25:12.422Z,-0.15
2016-12-31T01:26:12.761Z,-0.31
2016-12-31T01:27:12.338Z,-0.26
2016-12-31T01:28:12.680Z,-0.37
2016-12-31T01:29:12.256Z,-0.26
2016-12-31T01:30:12.219Z,-0.31
2016-12-31T01:31:12.549Z,-0.36
2016-12-31T01:32:12.504Z,-0.28
2016-12-31T01:33:12.081Z,-0.28
2016-12-31T01:34:12.423Z,-0.26
2016-12-31T01:35:11.999Z,-0.28
2016-12-31T01:36:12.335Z,-0.31
2016-12-31T01:37:12.294Z,-0.39
2016-12-31T01:38:12.277Z,-0.39
2016-12-31T01:39:12.212Z,-0.36
2016-12-31T01:40:12.175Z,-0.33
2016-12-31T01:41:12.121Z,-0.39
2016-12-31T01:42:11.695Z,-0.4
2016-12-31T01:43:11.657Z,-0.34
2016-12-31T01:44:11.999Z,-0.42
2016-12-31T01:45:11.566Z,-0.42
2016-12-31T01:46:11.951Z,-0.47
2016-12-31T01:47:11.867Z,-0.39
2016-12-31T01:48:11.826Z,-0.46
2016-12-31T01:49:11.781Z,-0.39
2016-12-31T01:50:11.736Z,-0.4
2016-12-31T01:51:11.695Z,-0.4
2016-12-31T01:52:11.655Z,-0.39
2016-12-31T01:53:11.225Z,-0.36
2016-12-31T01:54:11.180Z,-0.36
2016-12-31T01:55:11.526Z,-0.37
2016-12-31T01:56:10.714Z,-0.34
2016-12-31T01:57:11.056Z,-0.49
2016-12-31T01:58:11.399Z,-0.4
2016-12-31T01:59:11.367Z,-0.39
2016-12-31T02:00:10.538Z,-0.55
2016-12-31T02:01:11.280Z,-0.44
2016-12-31T02:02:10.843Z,-0.46
2016-12-31T02:03:11.183Z,-0.49
2016-12-31T02:04:11.140Z,-0.46
2016-12-31T02:05:11.110Z,-0.46
2016-12-31T02:06:10.674Z,-0.46
2016-12-31T02:07:10.243Z,-0.51
2016-12-31T02:08:10.585Z,-0.55
2016-12-31T02:09:10.159Z,-0.49
2016-12-31T02:10:10.884Z,-0.54
2016-12-31T02:11:10.846Z,-0.52
2016-12-31T02:12:10.805Z,-0.44
2016-12-31T02:13:10.758Z,-0.44
2016-12-31T02:14:10.712Z,-0.42
2016-12-31T02:15:10.284Z,-0.55
2016-12-31T02:16:10.247Z,-0.44
2016-12-31T02:17:10.206Z,-0.55
2016-12-31T02:18:10.543Z,-0.4
2016-12-31T02:19:09.751Z,-0.54
2016-12-31T02:20:10.461Z,-0.52
2016-12-31T02:21:10.420Z,-0.57
2016-12-31T02:22:10.380Z,-0.54
2016-12-31T02:23:10.331Z,-0.51
2016-12-31T02:24:09.897Z,-0.54
2016-12-31T02:25:09.860Z,-0.49
2016-12-31T02:26:10.199Z,-0.58
2016-12-31T02:27:10.163Z,-0.58
2016-12-31T02:28:09.733Z,-0.49
2016-12-31T02:29:09.301Z,-0.57
2016-12-31T02:30:10.031Z,-0.6
2016-12-31T02:31:09.984Z,-0.51
2016-12-31T02:32:09.560Z,-0.61
2016-12-31T02:33:09.901Z,-0.55
2016-12-31T02:34:09.882Z,-0.57
2016-12-31T02:35:09.820Z,-0.58
2016-12-31T02:36:09.771Z,-0.57
2016-12-31T02:37:09.728Z,-0.57
2016-12-31T02:38:09.701Z,-0.61
2016-12-31T02:39:08.874Z,-0.64
2016-12-31T02:40:09.603Z,-0.54
2016-12-31T02:41:09.561Z,-0.69
2016-12-31T02:42:09.136Z,-0.52
2016-12-31T02:43:09.087Z,-0.55
2016-12-31T02:44:09.049Z,-0.67
2016-12-31T02:45:09.389Z,-0.57
2016-12-31T02:46:08.983Z,-0.57
2016-12-31T02:47:09.307Z,-0.75
2016-12-31T02:48:09.261Z,-0.58
2016-12-31T02:49:09.222Z,-0.67
2016-12-31T02:50:08.790Z,-0.69
2016-12-31T02:51:09.158Z,-0.75
2016-12-31T02:52:08.721Z,-0.78
2016-12-31T02:53:08.661Z,-0.7
2016-12-31T02:54:08.614Z,-0.69
2016-12-31T02:55:08.964Z,-0.7
2016-12-31T02:56:08.532Z,-0.7
2016-12-31T02:57:08.871Z,-0.67
2016-12-31T02:58:08.831Z,-0.7
2016-12-31T02:59:08.794Z,-0.7
2016-12-31T03:00:08.360Z,-0.69
2016-12-31T03:01:08.710Z,-0.7
2016-12-31T03:02:08.661Z,-0.62
2016-12-31T03:03:08.614Z,-0.72
2016-12-31T03:04:08.577Z,-0.73
2016-12-31T03:05:08.148Z,-0.6
2016-12-31T03:06:08.493Z,-0.69
2016-12-31T03:07:08.445Z,-0.67
2016-12-31T03:08:08.407Z,-0.65
2016-12-31T03:09:08.355Z,-0.65
2016-12-31T03:10:07.930Z,-0.69
2016-12-31T03:11:08.273Z,-0.65
2016-12-31T03:12:07.849Z,-0.75
2016-12-31T03:13:08.186Z,-0.75
2016-12-31T03:14:07.378Z,-0.62
2016-12-31T03:15:08.105Z,-0.69
2016-12-31T03:16:07.674Z,-0.64
2016-12-31T03:17:08.016Z,-0.76
2016-12-31T03:18:07.201Z,-0.67
2016-12-31T03:19:07.931Z,-0.78
2016-12-31T03:20:07.893Z,-0.67
2016-12-31T03:21:07.844Z,-0.76
2016-12-31T03:22:07.800Z,-0.6
2016-12-31T03:23:07.371Z,-0.75
2016-12-31T03:24:07.714Z,-0.67
2016-12-31T03:25:07.675Z,-0.64
2016-12-31T03:26:07.244Z,-0.62
2016-12-31T03:27:07.588Z,-0.7
2016-12-31T03:28:07.540Z,-0.7
2016-12-31T03:29:07.508Z,-0.64
2016-12-31T03:30:07.076Z,-0.62
2016-12-31T03:31:07.028Z,-0.73
2016-12-31T03:32:06.991Z,-0.76
2016-12-31T03:33:07.329Z,-0.69
2016-12-31T03:34:07.286Z,-0.73
2016-12-31T03:35:07.246Z,-0.75
2016-12-31T03:36:07.201Z,-0.72
2016-12-31T03:37:07.162Z,-0.76
2016-12-31T03:38:06.729Z,-0.72
2016-12-31T03:39:07.071Z,-0.75
2016-12-31T03:40:07.033Z,-0.76
2016-12-31T03:41:06.988Z,-0.67
2016-12-31T03:42:06.559Z,-0.75
2016-12-31T03:43:06.515Z,-0.75
2016-12-31T03:44:06.858Z,-0.76
2016-12-31T03:45:06.431Z,-0.7
2016-12-31T03:46:06.773Z,-0.75
2016-12-31T03:47:06.343Z,-0.75
2016-12-31T03:48:06.690Z,-0.78
2016-12-31T03:49:06.643Z,-0.75
2016-12-31T03:50:06.216Z,-0.83
2016-12-31T03:51:06.175Z,-0.72
2016-12-31T03:52:06.515Z,-0.7
2016-12-31T03:53:06.086Z,-0.72
2016-12-31T03:54:05.659Z,-0.72
2016-12-31T03:55:06.387Z,-0.78
2016-12-31T03:56:06.343Z,-0.7
2016-12-31T03:57:05.915Z,-0.69
2016-12-31T03:58:06.282Z,-0.73
2016-12-31T03:59:05.830Z,-0.69
2016-12-31T04:00:05.407Z,-0.73
2016-12-31T04:01:05.744Z,-0.73
2016-12-31T04:02:06.084Z,-0.73
2016-12-31T04:03:06.047Z,-0.65
2016-12-31T04:04:06.001Z,-0.69
2016-12-31T04:05:05.607Z,-0.75
2016-12-31T04:06:05.924Z,-0.7
2016-12-31T04:07:05.872Z,-0.75
2016-12-31T04:08:05.444Z,-0.69
2016-12-31T04:09:05.790Z,-0.73
2016-12-31T04:10:05.360Z,-0.75
2016-12-31T04:11:05.313Z,-0.7
2016-12-31T04:12:05.657Z,-0.73
2016-12-31T04:13:04.846Z,-0.75
2016-12-31T04:14:05.573Z,-0.78
2016-12-31T04:15:05.143Z,-0.85
2016-12-31T04:16:05.490Z,-0.8
2016-12-31T04:17:05.067Z,-0.78
2016-12-31T04:18:05.021Z,-0.78
2016-12-31T04:19:05.360Z,-0.8
2016-12-31T04:20:05.325Z,-0.75
2016-12-31T04:21:05.276Z,-0.82
2016-12-31T04:22:04.462Z,-0.79
2016-12-31T04:23:04.418Z,-0.79
2016-12-31T04:24:05.144Z,-0.76
2016-12-31T04:25:05.098Z,-0.82
2016-12-31T04:26:05.071Z,-0.79
2016-12-31T04:27:04.628Z,-0.83
2016-12-31T04:28:04.976Z,-0.79
2016-12-31T04:29:04.549Z,-0.79
2016-12-31T04:30:04.502Z,-0.8
2016-12-31T04:31:04.459Z,-0.78
2016-12-31T04:32:04.802Z,-0.8
2016-12-31T04:33:04.760Z,-0.83
2016-12-31T04:34:04.718Z,-0.82
2016-12-31T04:35:04.672Z,-0.79
2016-12-31T04:36:04.632Z,-0.75
2016-12-31T04:37:04.582Z,-0.83
2016-12-31T04:38:04.156Z,-0.85
2016-12-31T04:39:04.138Z,-0.85
2016-12-31T04:40:04.464Z,-0.79
2016-12-31T04:41:04.030Z,-0.8
2016-12-31T04:42:04.370Z,-0.85
2016-12-31T04:43:03.948Z,-0.85
2016-12-31T04:44:04.287Z,-0.85
2016-12-31T04:45:04.240Z,-0.82
2016-12-31T04:46:04.201Z,-0.82
2016-12-31T04:47:04.158Z,-0.83
2016-12-31T04:48:04.116Z,-0.83
2016-12-31T04:49:04.076Z,-0.86
2016-12-31T04:50:04.026Z,-0.85
2016-12-31T04:51:03.982Z,-0.86
2016-12-31T04:52:03.941Z,-0.79
2016-12-31T04:53:03.901Z,-0.8
2016-12-31T04:54:03.857Z,-0.8
2016-12-31T04:55:03.430Z,-0.79
2016-12-31T04:56:03.767Z,-0.8
2016-12-31T04:57:03.731Z,-0.86
2016-12-31T04:58:03.681Z,-0.83
2016-12-31T04:59:03.648Z,-0.73
2016-12-31T05:00:03.215Z,-0.86
2016-12-31T05:01:03.560Z,-0.82
2016-12-31T05:02:03.510Z,-0.85
2016-12-31T05:03:02.723Z,-0.82
2016-12-31T05:04:03.041Z,-0.82
2016-12-31T05:05:03.379Z,-0.89
2016-12-31T05:06:03.342Z,-0.82
2016-12-31T05:07:02.525Z,-0.89
2016-12-31T05:08:03.259Z,-0.89
2016-12-31T05:09:03.217Z,-0.85
2016-12-31T05:10:02.785Z,-0.91
2016-12-31T05:11:03.126Z,-0.91
2016-12-31T05:12:03.083Z,-0.86
2016-12-31T05:13:03.039Z,-0.94
2016-12-31T05:14:02.612Z,-0.85
2016-12-31T05:15:02.569Z,-0.86
2016-12-31T05:16:02.911Z,-0.82
2016-12-31T05:17:02.484Z,-0.8
2016-12-31T05:18:02.054Z,-0.83
2016-12-31T05:19:02.401Z,-0.89
2016-12-31T05:20:02.735Z,-0.91
2016-12-31T05:21:02.312Z,-0.82
2016-12-31T05:22:02.273Z,-0.82
2016-12-31T05:23:02.226Z,-0.82
2016-12-31T05:24:02.566Z,-0.82
2016-12-31T05:25:02.527Z,-0.85
2016-12-31T05:26:02.481Z,-0.91
2016-12-31T05:27:02.056Z,-0.82
2016-12-31T05:28:02.399Z,-0.85
2016-12-31T05:29:02.354Z,-0.83
2016-12-31T05:30:01.926Z,-0.86
2016-12-31T05:31:01.500Z,-0.86
2016-12-31T05:32:01.840Z,-0.89
2016-12-31T05:33:02.183Z,-0.86
2016-12-31T05:34:02.137Z,-0.86
2016-12-31T05:35:02.095Z,-0.83
2016-12-31T05:36:01.670Z,-0.86
2016-12-31T05:37:02.015Z,-0.86
2016-12-31T05:38:01.975Z,-0.8
2016-12-31T05:39:01.544Z,-0.86
2016-12-31T05:40:01.496Z,-0.82
2016-12-31T05:41:01.453Z,-0.82
2016-12-31T05:42:01.025Z,-0.85
2016-12-31T05:43:01.366Z,-0.92
2016-12-31T05:44:01.323Z,-0.82
2016-12-31T05:45:01.668Z,-0.89
2016-12-31T05:46:01.241Z,-0.83
2016-12-31T05:47:01.198Z,-0.82
2016-12-31T05:48:01.151Z,-0.85
2016-12-31T05:49:01.118Z,-0.82
2016-12-31T05:50:01.458Z,-0.8
2016-12-31T05:51:01.022Z,-0.86
2016-12-31T05:52:01.366Z,-0.83
2016-12-31T05:53:01.318Z,-0.86
2016-12-31T05:54:00.894Z,-0.82
2016-12-31T05:55:01.232Z,-0.89
2016-12-31T05:56:01.198Z,-0.86
2016-12-31T05:57:00.764Z,-0.83
2016-12-31T05:58:01.117Z,-0.92
2016-12-31T05:59:00.680Z,-0.92
2016-12-31T06:00:00.634Z,-0.99
2016-12-31T06:01:00.981Z,-0.94
2016-12-31T06:02:00.567Z,-0.83
2016-12-31T06:03:00.122Z,-0.92
2016-12-31T06:04:00.849Z,-0.99
2016-12-31T06:05:00.424Z,-0.95
2016-12-31T06:06:00.759Z,-0.82
2016-12-31T06:07:00.721Z,-0.92
2016-12-31T06:08:00.291Z,-1.04
2016-12-31T06:09:00.637Z,-0.89
2016-12-31T06:10:00.596Z,-0.94
2016-12-31T06:11:00.544Z,-0.97
2016-12-31T06:12:00.119Z,-0.98
2016-12-31T06:13:00.463Z,-0.85
2016-12-31T06:14:00.418Z,-0.8
2016-12-31T06:14:59.603Z,-0.83
2016-12-31T06:15:59.976Z,-0.91
2016-12-31T06:17:00.290Z,-0.86
2016-12-31T06:18:00.250Z,-0.94
2016-12-31T06:19:00.205Z,-0.95
2016-12-31T06:20:00.160Z,-0.92
2016-12-31T06:20:59.735Z,-0.89
2016-12-31T06:22:00.076Z,-0.94
2016-12-31T06:22:59.648Z,-0.97
2016-12-31T06:23:59.606Z,-0.98
2016-12-31T06:24:59.560Z,-0.92
2016-12-31T06:25:59.930Z,-0.85
2016-12-31T06:26:59.858Z,-0.98
2016-12-31T06:27:59.814Z,-0.85
2016-12-31T06:28:59.777Z,-0.91
2016-12-31T06:29:59.353Z,-0.8
2016-12-31T06:30:59.686Z,-0.82
2016-12-31T06:31:59.643Z,-0.92
2016-12-31T06:32:59.603Z,-0.92
2016-12-31T06:33:59.560Z,-0.89
2016-12-31T06:34:59.516Z,-0.8
2016-12-31T06:35:59.500Z,-0.89
2016-12-31T06:36:59.434Z,-0.94
2016-12-31T06:37:59.003Z,-0.91
2016-12-31T06:38:58.961Z,-0.91
2016-12-31T06:39:58.531Z,-0.97
2016-12-31T06:40:59.260Z,-1.02
2016-12-31T06:41:58.443Z,-1.05
2016-12-31T06:42:58.789Z,-1.04
2016-12-31T06:43:58.360Z,-1.02
2016-12-31T06:44:59.096Z,-1.05
2016-12-31T06:45:58.658Z,-1.05
2016-12-31T06:46:59.003Z,-1.09
2016-12-31T06:47:58.961Z,-1.04
2016-12-31T06:48:58.918Z,-0.99
2016-12-31T06:49:58.870Z,-0.98
2016-12-31T06:50:58.059Z,-0.99
2016-12-31T06:51:58.400Z,-0.97
2016-12-31T06:52:58.742Z,-0.99
2016-12-31T06:53:58.320Z,-0.89
2016-12-31T06:54:58.266Z,-0.89
2016-12-31T06:55:58.619Z,-0.92
2016-12-31T06:56:58.186Z,-0.94
2016-12-31T06:57:58.528Z,-0.95
2016-12-31T06:58:58.490Z,-0.86
2016-12-31T06:59:58.058Z,-0.97
2016-12-31T07:00:58.397Z,-0.99
2016-12-31T07:01:58.359Z,-1.09
2016-12-31T07:02:57.928Z,-1.1
2016-12-31T07:03:58.274Z,-1.09
2016-12-31T07:04:57.844Z,-1.12
2016-12-31T07:05:57.796Z,-1.16
2016-12-31T07:06:58.164Z,-1.22
2016-12-31T07:07:58.105Z,-1.1
2016-12-31T07:08:57.669Z,-1.13
2016-12-31T07:09:57.635Z,-1.1
2016-12-31T07:10:57.997Z,-1.02
2016-12-31T07:11:57.928Z,-1.05
2016-12-31T07:12:57.883Z,-1.1
2016-12-31T07:13:57.838Z,-1.01
2016-12-31T07:14:57.412Z,-1.04
2016-12-31T07:15:57.758Z,-1.02
2016-12-31T07:16:57.329Z,-1.02
2016-12-31T07:17:56.900Z,-0.98
2016-12-31T07:18:57.253Z,-0.98
2016-12-31T07:19:57.198Z,-1.01
2016-12-31T07:20:57.545Z,-0.99
2016-12-31T07:21:57.113Z,-0.85
2016-12-31T07:22:57.455Z,-0.99
2016-12-31T07:23:57.412Z,-0.98
2016-12-31T07:24:56.984Z,-0.86
2016-12-31T07:25:57.323Z,-0.97
2016-12-31T07:26:57.282Z,-0.92
2016-12-31T07:27:57.234Z,-0.92
2016-12-31T07:28:56.814Z,-0.91
2016-12-31T07:29:56.766Z,-0.99
2016-12-31T07:30:57.114Z,-0.98
2016-12-31T07:31:57.077Z,-0.99
2016-12-31T07:32:57.024Z,-0.98
2016-12-31T07:33:56.598Z,-1.01
2016-12-31T07:34:56.555Z,-1.02
2016-12-31T07:35:56.901Z,-0.97
2016-12-31T07:36:56.852Z,-1.02
2016-12-31T07:37:56.428Z,-0.98
2016-12-31T07:38:56.383Z,-0.95
2016-12-31T07:39:56.723Z,-1.02
2016-12-31T07:40:56.687Z,-1.02
2016-12-31T07:41:56.258Z,-1.04
2016-12-31T07:42:56.211Z,-0.95
2016-12-31T07:43:56.168Z,-0.99
2016-12-31T07:44:56.511Z,-0.86
2016-12-31T07:45:56.471Z,-0.79
2016-12-31T07:46:56.041Z,-0.94
2016-12-31T07:47:55.999Z,-0.95
2016-12-31T07:48:55.958Z,-0.85
2016-12-31T07:49:55.914Z,-0.85
2016-12-31T07:50:56.257Z,-0.97
2016-12-31T07:51:56.211Z,-1.02
2016-12-31T07:52:56.167Z,-1.04
2016-12-31T07:53:55.739Z,-1.05
2016-12-31T07:54:56.087Z,-1.04
2016-12-31T07:55:56.041Z,-1.05
2016-12-31T07:56:55.613Z,-1.16
2016-12-31T07:57:55.181Z,-1.15
2016-12-31T07:58:55.916Z,-1.13
2016-12-31T07:59:55.099Z,-1.19
2016-12-31T08:00:55.848Z,-1.13
2016-12-31T08:01:55.784Z,-1.12
2016-12-31T08:02:55.354Z,-1.05
2016-12-31T08:03:55.313Z,-1.07
2016-12-31T08:04:55.269Z,-1.1
2016-12-31T08:05:55.614Z,-1.12
2016-12-31T08:06:55.567Z,-1.17
2016-12-31T08:07:55.560Z,-1.1
2016-12-31T08:08:55.492Z,-1.15
2016-12-31T08:09:55.054Z,-1.12
2016-12-31T08:10:55.392Z,-1.09
2016-12-31T08:11:55.355Z,-1.12
2016-12-31T08:12:55.344Z,-1.1
2016-12-31T08:13:55.268Z,-1.1
2016-12-31T08:14:55.232Z,-1.01
2016-12-31T08:15:55.181Z,-1.19
2016-12-31T08:16:54.750Z,-0.99
2016-12-31T08:17:55.098Z,-1.07
2016-12-31T08:18:55.053Z,-1.1
2016-12-31T08:19:55.017Z,-1.1
2016-12-31T08:20:54.581Z,-1.12
2016-12-31T08:21:54.926Z,-1.19
2016-12-31T08:22:54.877Z,-1.22
2016-12-31T08:23:54.449Z,-1.22
2016-12-31T08:24:54.789Z,-1.16
2016-12-31T08:25:54.759Z,-1.1
2016-12-31T08:26:54.320Z,-1.12
2016-12-31T08:27:54.662Z,-1.19
2016-12-31T08:28:54.630Z,-1.1
2016-12-31T08:29:54.193Z,-0.97
2016-12-31T08:30:54.534Z,-1.01
2016-12-31T08:31:54.490Z,-1.01
2016-12-31T08:32:54.444Z,-0.86
2016-12-31T08:33:54.022Z,-0.94
2016-12-31T08:34:53.980Z,-0.86
2016-12-31T08:35:54.321Z,-0.92
2016-12-31T08:36:54.277Z,-0.95
2016-12-31T08:37:54.244Z,-0.99
2016-12-31T08:38:54.191Z,-0.8
2016-12-31T08:39:53.764Z,-0.85
2016-12-31T08:40:54.106Z,-0.82
2016-12-31T08:41:54.057Z,-0.79
2016-12-31T08:42:53.639Z,-0.83
2016-12-31T08:43:53.984Z,-0.79
2016-12-31T08:44:53.931Z,-0.83
2016-12-31T08:45:53.891Z,-0.79
2016-12-31T08:46:53.574Z,-0.82
2016-12-31T08:47:53.805Z,-0.75
2016-12-31T08:48:53.373Z,-0.8
2016-12-31T08:49:53.331Z,-0.82
2016-12-31T08:50:53.295Z,-1.02
2016-12-31T08:51:53.630Z,-0.99
2016-12-31T08:52:53.590Z,-0.97
2016-12-31T08:53:53.548Z,-0.99
2016-12-31T08:54:53.508Z,-0.98
2016-12-31T08:55:53.082Z,-0.95
2016-12-31T08:56:53.031Z,-0.97
2016-12-31T08:57:53.371Z,-0.94
2016-12-31T08:58:53.332Z,-0.89
2016-12-31T08:59:52.918Z,-0.85
2016-12-31T09:00:53.246Z,-0.79
2016-12-31T09:01:52.819Z,-0.72
2016-12-31T09:02:53.161Z,-0.76
2016-12-31T09:03:53.118Z,-0.62
2016-12-31T09:04:53.074Z,-0.57
2016-12-31T09:05:53.030Z,-0.64
2016-12-31T09:06:52.985Z,-0.61
2016-12-31T09:07:52.946Z,-0.58
2016-12-31T09:08:52.518Z,-0.57
2016-12-31T09:09:52.088Z,-0.61
2016-12-31T09:10:52.434Z,-0.55
2016-12-31T09:11:52.771Z,-0.58
2016-12-31T09:12:52.341Z,-0.55
2016-12-31T09:13:52.689Z,-0.54
2016-12-31T09:14:52.647Z,-0.44
2016-12-31T09:15:52.599Z,-0.47
2016-12-31T09:16:52.172Z,-0.43
2016-12-31T09:17:52.520Z,-0.44
2016-12-31T09:18:52.475Z,-0.42
2016-12-31T09:19:52.437Z,-0.34
2016-12-31T09:20:52.392Z,-0.46
2016-12-31T09:21:52.347Z,-0.43
2016-12-31T09:22:51.913Z,-0.43
2016-12-31T09:23:51.876Z,-0.52
2016-12-31T09:24:52.218Z,-0.44
2016-12-31T09:25:51.404Z,-0.55
2016-12-31T09:26:52.132Z,-0.47
2016-12-31T09:27:51.703Z,-0.49
2016-12-31T09:28:52.047Z,-0.6
2016-12-31T09:29:52.003Z,-0.58
2016-12-31T09:30:51.577Z,-0.61
2016-12-31T09:31:51.918Z,-0.58
2016-12-31T09:32:51.873Z,-0.55
2016-12-31T09:33:51.447Z,-0.61
2016-12-31T09:34:51.785Z,-0.7
2016-12-31T09:35:51.363Z,-0.78
2016-12-31T09:36:51.708Z,-0.7
2016-12-31T09:37:51.659Z,-0.75
2016-12-31T09:38:51.620Z,-0.64
2016-12-31T09:39:51.574Z,-0.69
2016-12-31T09:40:51.147Z,-0.57
2016-12-31T09:41:51.489Z,-0.57
2016-12-31T09:42:51.443Z,-0.67
2016-12-31T09:43:51.027Z,-0.61
2016-12-31T09:44:51.358Z,-0.58
2016-12-31T09:45:51.316Z,-0.58
2016-12-31T09:46:50.893Z,-0.67
2016-12-31T09:47:51.234Z,-0.62
2016-12-31T09:48:51.184Z,-0.62
2016-12-31T09:49:50.370Z,-0.6
2016-12-31T09:50:51.098Z,-0.58
2016-12-31T09:51:51.065Z,-0.6
2016-12-31T09:52:50.632Z,-0.52
2016-12-31T09:53:50.583Z,-0.49
2016-12-31T09:54:50.554Z,-0.51
2016-12-31T09:55:50.884Z,-0.54
2016-12-31T09:56:50.470Z,-0.54
2016-12-31T09:57:50.796Z,-0.46
2016-12-31T09:58:50.758Z,-0.4
2016-12-31T09:59:50.729Z,-0.37
2016-12-31T10:00:50.667Z,-0.29
2016-12-31T10:01:50.635Z,-0.28
2016-12-31T10:02:50.589Z,-0.15
2016-12-31T10:03:50.543Z,-0.14
2016-12-31T10:04:50.504Z,-0.04
2016-12-31T10:05:50.456Z,-0.03
2016-12-31T10:06:50.416Z,0.1
2016-12-31T10:07:50.373Z,0.07
2016-12-31T10:08:50.330Z,0.08
2016-12-31T10:09:50.293Z,0.08
2016-12-31T10:10:50.245Z,0.1
2016-12-31T10:11:50.199Z,0.2
2016-12-31T10:12:50.153Z,0.21
2016-12-31T10:13:49.728Z,0.14
2016-12-31T10:14:50.073Z,0.07
2016-12-31T10:15:49.643Z,0.15
2016-12-31T10:16:49.990Z,0.11
2016-12-31T10:17:49.564Z,0.02
2016-12-31T10:18:49.900Z,0.11
2016-12-31T10:19:49.472Z,0.03
2016-12-31T10:20:49.813Z,0.08
2016-12-31T10:21:49.393Z,0.02
2016-12-31T10:22:49.343Z,0.02
2016-12-31T10:23:48.913Z,0.07
2016-12-31T10:24:49.262Z,0
2016-12-31T10:25:49.604Z,0.17
2016-12-31T10:26:49.559Z,0.07
2016-12-31T10:27:49.138Z,0.2
2016-12-31T10:28:49.472Z,0.11
2016-12-31T10:29:49.430Z,0.04
2016-12-31T10:30:49.389Z,0.04
2016-12-31T10:31:49.359Z,0.04
2016-12-31T10:32:49.306Z,0.08
2016-12-31T10:33:49.263Z,0.07
2016-12-31T10:34:49.216Z,0.11
2016-12-31T10:35:49.183Z,0.17
2016-12-31T10:36:49.134Z,0.1
2016-12-31T10:37:49.090Z,0.13
2016-12-31T10:38:48.660Z,0.14
2016-12-31T10:39:49.005Z,0.2
2016-12-31T10:40:48.579Z,0.1
2016-12-31T10:41:48.956Z,0.13
2016-12-31T10:42:48.885Z,0.21
2016-12-31T10:43:48.834Z,0.11
2016-12-31T10:44:48.792Z,0.15
2016-12-31T10:45:48.366Z,0.2
2016-12-31T10:46:48.708Z,0.26
2016-12-31T10:47:48.670Z,0.33
2016-12-31T10:48:48.624Z,0.24
2016-12-31T10:49:48.206Z,0.26
2016-12-31T10:50:48.537Z,0.28
2016-12-31T10:51:48.506Z,0.26
2016-12-31T10:52:48.452Z,0.28
2016-12-31T10:53:48.417Z,0.31
2016-12-31T10:54:48.374Z,0.29
2016-12-31T10:55:48.333Z,0.31
2016-12-31T10:56:47.900Z,0.26
2016-12-31T10:57:47.469Z,0.28
2016-12-31T10:58:48.206Z,0.29
2016-12-31T10:59:48.157Z,0.23
2016-12-31T11:00:48.119Z,0.23
2016-12-31T11:01:48.075Z,0.2
2016-12-31T11:02:48.035Z,0.24
2016-12-31T11:03:47.603Z,0.21
2016-12-31T11:04:47.951Z,0.21
2016-12-31T11:05:47.520Z,0.28
2016-12-31T11:06:47.872Z,0.36
2016-12-31T11:07:47.824Z,0.26
2016-12-31T11:08:47.780Z,0.28
2016-12-31T11:09:47.740Z,0.21
2016-12-31T11:10:47.312Z,0.26
2016-12-31T11:11:47.649Z,0.28
2016-12-31T11:12:46.841Z,0.26
2016-12-31T11:13:47.571Z,0.39
2016-12-31T11:14:47.527Z,0.36
2016-12-31T11:15:47.130Z,0.35
2016-12-31T11:16:47.057Z,0.29
2016-12-31T11:17:47.404Z,0.32
2016-12-31T11:18:46.974Z,0.29
2016-12-31T11:19:47.313Z,0.26
2016-12-31T11:20:47.273Z,0.29
2016-12-31T11:21:47.228Z,0.17
2016-12-31T11:22:47.185Z,0.26
2016-12-31T11:23:47.144Z,0.14
2016-12-31T11:24:47.104Z,0.17
2016-12-31T11:25:46.672Z,0.28
2016-12-31T11:26:46.630Z,0.11
2016-12-31T11:27:46.977Z,0.21
2016-12-31T11:28:46.937Z,0.24
2016-12-31T11:29:46.506Z,0.31
2016-12-31T11:30:46.847Z,0.29
2016-12-31T11:31:46.806Z,0.32
2016-12-31T11:32:46.783Z,0.28
2016-12-31T11:33:46.729Z,0.39
2016-12-31T11:34:46.293Z,0.32
2016-12-31T11:35:46.639Z,0.36
2016-12-31T11:36:46.209Z,0.36
2016-12-31T11:37:46.593Z,0.46
2016-12-31T11:38:46.512Z,0.42
2016-12-31T11:39:46.491Z,0.29
2016-12-31T11:40:46.426Z,0.38
2016-12-31T11:41:46.383Z,0.42
2016-12-31T11:42:46.338Z,0.46
2016-12-31T11:43:46.299Z,0.42
2016-12-31T11:44:45.869Z,0.49
2016-12-31T11:45:45.830Z,0.44
2016-12-31T11:46:45.797Z,0.38
2016-12-31T11:47:46.131Z,0.31
2016-12-31T11:48:46.094Z,0.17
2016-12-31T11:49:46.043Z,0.11
2016-12-31T11:50:45.629Z,0.07
2016-12-31T11:51:45.957Z,0.28
2016-12-31T11:52:45.149Z,0.28
2016-12-31T11:53:45.876Z,0.33
2016-12-31T11:54:45.836Z,0.32
2016-12-31T11:55:45.413Z,0.35
2016-12-31T11:56:45.370Z,0.46
2016-12-31T11:57:45.720Z,0.46
2016-12-31T11:58:45.661Z,0.41
2016-12-31T11:59:45.621Z,0.39
2016-12-31T12:00:45.197Z,0.41
2016-12-31T12:01:45.533Z,0.36
2016-12-31T12:02:45.114Z,0.41
2016-12-31T12:03:44.683Z,0.42
2016-12-31T12:04:45.413Z,0.51
2016-12-31T12:05:45.367Z,0.5
2016-12-31T12:06:45.323Z,0.5
2016-12-31T12:07:45.291Z,0.5
2016-12-31T12:08:45.237Z,0.47
2016-12-31T12:09:45.197Z,0.42
2016-12-31T12:10:44.771Z,0.38
2016-12-31T12:11:44.728Z,0.33
2016-12-31T12:12:45.072Z,0.39
2016-12-31T12:13:44.648Z,0.39
2016-12-31T12:14:44.993Z,0.44
2016-12-31T12:15:44.564Z,0.44
2016-12-31T12:16:44.515Z,0.42
2016-12-31T12:17:44.474Z,0.42
2016-12-31T12:18:44.467Z,0.5
2016-12-31T12:19:44.785Z,0.47
2016-12-31T12:20:44.736Z,0.53
2016-12-31T12:21:44.308Z,0.57
2016-12-31T12:22:44.658Z,0.58
2016-12-31T12:23:44.609Z,0.58
2016-12-31T12:24:44.566Z,0.57
2016-12-31T12:25:44.528Z,0.57
2016-12-31T12:26:44.097Z,0.51
2016-12-31T12:27:44.439Z,0.49
2016-12-31T12:28:44.011Z,0.57
2016-12-31T12:29:44.353Z,0.44
2016-12-31T12:30:43.929Z,0.51
2016-12-31T12:31:44.272Z,0.44
2016-12-31T12:32:44.233Z,0.36
2016-12-31T12:33:43.805Z,0.32
2016-12-31T12:34:44.145Z,0.29
2016-12-31T12:35:43.716Z,0.23
2016-12-31T12:36:44.058Z,0.29
2016-12-31T12:37:44.025Z,0.29
2016-12-31T12:38:43.984Z,0.31
2016-12-31T12:39:43.557Z,0.47
2016-12-31T12:40:43.121Z,0.39
2016-12-31T12:41:43.465Z,0.39
2016-12-31T12:42:43.811Z,0.5
2016-12-31T12:43:43.379Z,0.31
2016-12-31T12:44:43.718Z,0.33
2016-12-31T12:45:43.679Z,0.17
2016-12-31T12:46:43.639Z,0.08
2016-12-31T12:47:43.598Z,0.1
2016-12-31T12:48:43.556Z,0.04
2016-12-31T12:49:43.511Z,0.02
2016-12-31T12:50:43.466Z,0.11
2016-12-31T12:51:43.041Z,0.17
2016-12-31T12:52:43.381Z,0.15
2016-12-31T12:53:43.341Z,0.15
2016-12-31T12:54:43.302Z,-0.01
2016-12-31T12:55:43.255Z,-0.03
2016-12-31T12:56:42.826Z,-0.04
2016-12-31T12:57:43.204Z,-0.1
2016-12-31T12:58:43.149Z,-0.05
2016-12-31T12:59:42.707Z,0.1